createdAt,value
2017-09-27T00:01:04.063Z,57.78
2017-09-27T00:03:32.679Z,54.05
2017-09-27T00:05:59.946Z,53.92
2017-09-27T00:13:34.397Z,63.33
2017-09-27T00:16:02.209Z,58.70
2017-09-27T00:18:33.406Z,59.65
2017-09-27T00:21:01.070Z,58.75
2017-09-27T00:23:28.163Z,60.47
2017-09-27T00:25:55.364Z,56.78
2017-09-27T00:28:24.840Z,59.15
2017-09-27T00:30:51.842Z,59.13
2017-09-27T00:33:20.638Z,56.15
2017-09-27T00:35:51.596Z,58.35
2017-09-27T00:38:19.617Z,60.83
2017-09-27T00:40:46.876Z,60.28
2017-09-27T00:43:14.803Z,56.00
2017-09-27T00:48:21.620Z,57.67
2017-09-27T00:50:49.957Z,67.05
2017-09-27T00:53:18.558Z,56.60
2017-09-27T00:55:56.506Z,56.80
2017-09-27T01:06:03.238Z,65.87
2017-09-27T01:08:30.367Z,62.50
2017-09-27T01:11:00.313Z,57.58
2017-09-27T01:13:27.775Z,66.47
2017-09-27T01:15:59.038Z,58.63
2017-09-27T01:20:58.750Z,64.10
2017-09-27T01:23:26.696Z,71.20
2017-09-27T01:25:58.433Z,66.37
2017-09-27T01:28:32.055Z,73.25
2017-09-27T01:31:01.977Z,66.30
2017-09-27T01:33:29.212Z,62.78
2017-09-27T01:35:56.267Z,64.28
2017-09-27T01:38:29.048Z,64.60
2017-09-27T01:40:58.891Z,66.50
2017-09-27T01:43:26.074Z,66.40
2017-09-27T01:45:52.889Z,66.22
2017-09-27T01:48:20.755Z,71.07
2017-09-27T01:50:48.886Z,64.80
2017-09-27T01:53:23.084Z,63.03
2017-09-27T01:55:50.793Z,62.97
2017-09-27T01:58:20.246Z,56.20
2017-09-27T02:00:51.686Z,62.22
2017-09-27T02:03:19.902Z,60.15
2017-09-27T02:05:47.727Z,66.55
2017-09-27T02:08:15.428Z,66.53
2017-09-27T02:10:44.356Z,68.10
2017-09-27T02:13:12.307Z,72.75
2017-09-27T02:15:40.975Z,63.30
2017-09-27T02:18:08.009Z,72.28
2017-09-27T02:20:35.060Z,74.68
2017-09-27T02:23:03.274Z,69.35
2017-09-27T02:25:32.919Z,71.90
2017-09-27T02:28:00.583Z,74.85
2017-09-27T02:30:28.476Z,74.37
2017-09-27T02:32:55.676Z,64.60
2017-09-27T02:35:27.181Z,64.07
2017-09-27T02:38:05.044Z,72.45
2017-09-27T02:48:32.507Z,70.43
2017-09-27T03:04:25.688Z,66.95
2017-09-27T03:09:35.877Z,65.30
2017-09-27T03:12:07.415Z,73.95
2017-09-27T03:17:15.412Z,77.22
2017-09-27T03:22:23.118Z,68.22
2017-09-27T03:24:53.109Z,66.47
2017-09-27T03:27:20.261Z,67.07
2017-09-27T03:32:25.548Z,78.62
2017-09-27T03:37:31.690Z,74.18
2017-09-27T03:42:54.102Z,68.70
2017-09-27T03:56:06.842Z,86.07
2017-09-27T03:58:36.194Z,69.72
2017-09-27T04:03:41.767Z,71.72
2017-09-27T04:11:23.784Z,85.38
2017-09-27T04:18:59.527Z,83.55
2017-09-27T04:40:39.833Z,67.47
2017-09-27T04:43:14.072Z,65.65
2017-09-27T04:58:47.275Z,80.87
2017-09-27T05:01:28.459Z,67.43
2017-09-27T05:06:44.256Z,69.68
2017-09-27T05:09:12.051Z,71.32
2017-09-27T05:11:40.940Z,75.68
2017-09-27T05:22:20.635Z,68.62
2017-09-27T05:27:27.839Z,70.30
2017-09-27T06:05:35.083Z,63.97
2017-09-27T06:08:01.984Z,61.13
2017-09-27T06:10:29.663Z,61.13
2017-09-27T06:12:56.811Z,59.88
2017-09-27T06:15:24.743Z,64.62
2017-09-27T06:17:51.796Z,53.72
2017-09-27T06:20:19.840Z,55.80
2017-09-27T06:22:46.956Z,52.45
2017-09-27T06:25:14.884Z,57.42
2017-09-27T06:27:43.102Z,46.10
2017-09-27T06:30:09.830Z,48.25
2017-09-27T06:32:36.761Z,49.67
2017-09-27T06:35:03.776Z,44.05
2017-09-27T06:37:30.808Z,46.42
2017-09-27T06:39:58.792Z,41.67
2017-09-27T06:42:26.454Z,45.30
2017-09-27T06:44:53.584Z,47.67
2017-09-27T06:47:20.721Z,44.22
2017-09-27T06:49:47.476Z,40.45
2017-09-27T06:52:14.563Z,40.65
2017-09-27T06:54:41.617Z,41.80
2017-09-27T06:57:08.703Z,42.08
2017-09-27T06:59:36.210Z,46.80
2017-09-27T07:04:35.265Z,39.35
2017-09-27T07:07:02.324Z,43.38
2017-09-27T07:09:29.438Z,39.75
2017-09-27T07:11:56.222Z,40.65
2017-09-27T07:14:23.260Z,41.60
2017-09-27T07:16:50.338Z,38.85
2017-09-27T07:19:17.618Z,38.92
2017-09-27T07:21:44.642Z,37.45
2017-09-27T07:24:12.146Z,38.08
2017-09-27T07:26:39.392Z,35.40
2017-09-27T07:29:06.389Z,37.72
2017-09-27T07:31:33.407Z,37.50
2017-09-27T07:34:00.557Z,35.88
2017-09-27T07:36:27.546Z,36.25
2017-09-27T07:38:54.982Z,37.75
2017-09-27T07:41:22.548Z,34.08
2017-09-27T07:43:49.703Z,35.65
2017-09-27T07:46:17.535Z,34.47
2017-09-27T07:48:44.587Z,35.03
2017-09-27T07:51:12.423Z,35.78
2017-09-27T07:53:39.958Z,32.90
2017-09-27T07:56:10.329Z,31.10
2017-09-27T07:58:38.528Z,35.35
2017-09-27T08:01:06.479Z,31.55
2017-09-27T08:03:33.252Z,32.15
2017-09-27T08:06:00.247Z,28.87
2017-09-27T08:08:27.086Z,27.70
2017-09-27T08:10:57.852Z,27.35
2017-09-27T08:13:24.910Z,26.48
2017-09-27T08:15:51.916Z,28.77
2017-09-27T08:18:18.936Z,29.08
2017-09-27T08:20:46.078Z,28.27
2017-09-27T08:23:13.574Z,25.70
2017-09-27T08:25:40.886Z,26.87
2017-09-27T08:28:08.107Z,26.87
2017-09-27T08:30:35.196Z,26.70
2017-09-27T08:33:02.752Z,25.95
2017-09-27T08:35:29.944Z,30.73
2017-09-27T08:37:57.031Z,28.70
2017-09-27T08:40:23.855Z,29.17
2017-09-27T08:42:51.022Z,26.55
2017-09-27T08:45:18.155Z,26.50
2017-09-27T08:47:45.269Z,27.05
2017-09-27T08:50:12.459Z,28.30
2017-09-27T08:52:39.526Z,23.95
2017-09-27T08:55:06.657Z,27.60
2017-09-27T08:57:33.710Z,28.52
2017-09-27T09:00:00.711Z,27.75
2017-09-27T09:02:28.416Z,29.95
2017-09-27T09:04:55.566Z,24.33
2017-09-27T09:07:23.202Z,26.30
2017-09-27T09:09:50.320Z,27.50
2017-09-27T09:12:17.408Z,27.75
2017-09-27T09:14:44.575Z,27.58
2017-09-27T09:17:12.187Z,25.25
2017-09-27T09:19:39.363Z,27.80
2017-09-27T09:22:06.308Z,26.70
2017-09-27T09:24:33.474Z,25.65
2017-09-27T09:27:00.945Z,26.40
2017-09-27T09:31:59.007Z,27.45
2017-09-27T09:34:26.510Z,25.02
2017-09-27T09:36:53.646Z,24.40
2017-09-27T09:39:20.800Z,26.37
2017-09-27T09:41:48.174Z,24.33
2017-09-27T09:44:15.211Z,23.77
2017-09-27T09:46:42.235Z,27.37
2017-09-27T09:49:09.392Z,24.67
2017-09-27T09:51:36.407Z,24.15
2017-09-27T09:54:03.607Z,21.45
2017-09-27T09:56:30.683Z,24.48
2017-09-27T09:58:58.466Z,26.12
2017-09-27T10:01:25.494Z,22.95
2017-09-27T10:03:52.896Z,24.15
2017-09-27T10:06:19.611Z,23.60
2017-09-27T10:08:46.560Z,23.40
2017-09-27T10:11:13.647Z,25.50
2017-09-27T10:13:40.595Z,24.35
2017-09-27T10:16:08.168Z,22.92
2017-09-27T10:18:35.113Z,21.30
2017-09-27T10:21:03.659Z,23.12
2017-09-27T10:23:30.644Z,24.25
2017-09-27T10:25:58.048Z,21.92
2017-09-27T10:28:24.742Z,22.98
2017-09-27T10:30:51.912Z,23.02
2017-09-27T10:33:20.556Z,23.10
2017-09-27T10:35:47.491Z,21.87
2017-09-27T10:38:14.601Z,23.08
2017-09-27T10:40:41.686Z,22.40
2017-09-27T10:43:08.728Z,20.35
2017-09-27T10:45:37.817Z,21.42
2017-09-27T10:48:04.749Z,20.05
2017-09-27T10:50:33.444Z,19.45
2017-09-27T10:53:00.175Z,18.25
2017-09-27T10:55:27.589Z,20.80
2017-09-27T10:57:54.295Z,21.30
2017-09-27T11:00:21.341Z,21.62
2017-09-27T11:02:48.344Z,21.65
2017-09-27T11:05:15.876Z,20.98
2017-09-27T11:10:15.727Z,20.42
2017-09-27T11:12:42.428Z,20.05
2017-09-27T11:15:09.544Z,20.58
2017-09-27T11:17:37.025Z,19.27
2017-09-27T11:20:03.948Z,18.42
2017-09-27T11:22:31.071Z,16.58
2017-09-27T11:24:58.179Z,17.80
2017-09-27T11:27:24.880Z,18.98
2017-09-27T11:29:51.899Z,18.65
2017-09-27T11:32:18.611Z,17.35
2017-09-27T11:34:46.478Z,18.42
2017-09-27T11:37:13.508Z,17.73
2017-09-27T11:39:40.218Z,20.50
2017-09-27T11:42:07.256Z,18.35
2017-09-27T11:44:34.210Z,20.27
2017-09-27T11:47:01.196Z,17.33
2017-09-27T11:49:28.816Z,16.52
2017-09-27T11:51:55.977Z,18.60
2017-09-27T11:54:23.009Z,17.20
2017-09-27T11:56:49.937Z,19.05
2017-09-27T11:59:17.054Z,17.70
2017-09-27T12:01:43.764Z,16.65
2017-09-27T12:04:11.151Z,18.62
2017-09-27T12:06:38.281Z,17.10
2017-09-27T12:09:05.329Z,18.23
2017-09-27T12:11:32.719Z,17.15
2017-09-27T12:14:00.128Z,18.62
2017-09-27T12:16:27.090Z,18.85
2017-09-27T12:18:53.787Z,20.25
2017-09-27T12:21:20.915Z,20.12
2017-09-27T12:23:47.851Z,21.20
2017-09-27T12:26:14.913Z,23.48
2017-09-27T12:28:41.645Z,24.67
2017-09-27T12:31:08.563Z,20.02
2017-09-27T12:33:35.259Z,20.48
2017-09-27T12:36:01.998Z,19.62
2017-09-27T12:38:28.979Z,19.05
2017-09-27T12:40:56.423Z,20.00
2017-09-27T12:43:23.464Z,20.42
2017-09-27T12:45:50.512Z,19.77
2017-09-27T12:48:17.502Z,19.23
2017-09-27T12:50:45.021Z,20.88
2017-09-27T12:53:11.993Z,20.83
2017-09-27T12:55:38.692Z,20.17
2017-09-27T12:58:05.764Z,21.85
2017-09-27T13:00:32.783Z,22.10
2017-09-27T13:02:59.497Z,21.83
2017-09-27T13:05:26.459Z,22.67
2017-09-27T13:07:53.151Z,22.55
2017-09-27T13:10:20.207Z,20.45
2017-09-27T13:12:47.891Z,19.30
2017-09-27T13:15:14.887Z,18.45
2017-09-27T13:17:41.867Z,19.98
2017-09-27T13:20:09.324Z,20.12
2017-09-27T13:22:36.348Z,20.40
2017-09-27T13:25:03.301Z,20.95
2017-09-27T13:27:30.336Z,19.58
2017-09-27T13:29:57.048Z,18.62
2017-09-27T13:32:24.023Z,17.80
2017-09-27T13:34:51.129Z,18.70
2017-09-27T13:37:17.837Z,21.15
2017-09-27T13:39:44.572Z,20.88
2017-09-27T13:42:11.587Z,17.73
2017-09-27T13:44:38.310Z,19.15
2017-09-27T13:47:05.003Z,16.58
2017-09-27T13:49:32.071Z,16.42
2017-09-27T13:51:58.775Z,16.50
2017-09-27T13:54:25.516Z,11.02
2017-09-27T13:56:52.236Z,10.80
2017-09-27T13:59:18.946Z,12.80
2017-09-27T14:01:45.675Z,10.65
2017-09-27T14:04:12.768Z,13.00
2017-09-27T14:06:39.484Z,12.63
2017-09-27T14:09:06.188Z,13.55
2017-09-27T14:11:33.249Z,12.98
2017-09-27T14:14:01.573Z,13.40
2017-09-27T14:16:28.563Z,13.75
2017-09-27T14:18:55.692Z,15.38
2017-09-27T14:21:22.667Z,16.08
2017-09-27T14:23:49.658Z,17.85
2017-09-27T14:26:16.876Z,18.55
2017-09-27T14:28:43.920Z,18.37
2017-09-27T14:31:11.377Z,13.25
2017-09-27T14:33:38.580Z,14.45
2017-09-27T14:36:05.284Z,14.98
2017-09-27T14:38:32.275Z,16.45
2017-09-27T14:40:58.968Z,17.75
2017-09-27T14:43:25.674Z,16.50
2017-09-27T14:45:52.788Z,17.85
2017-09-27T14:48:19.752Z,17.98
2017-09-27T14:50:46.444Z,16.62
2017-09-27T14:53:13.909Z,18.90
2017-09-27T14:55:40.848Z,15.13
2017-09-27T14:58:07.908Z,17.02
2017-09-27T15:00:34.644Z,16.05
2017-09-27T15:03:01.623Z,15.77
2017-09-27T15:05:28.320Z,15.43
2017-09-27T15:07:55.380Z,16.15
2017-09-27T15:10:22.480Z,18.17
2017-09-27T15:12:49.531Z,16.42
2017-09-27T15:15:16.585Z,20.80
2017-09-27T15:17:44.298Z,18.85
2017-09-27T15:20:11.011Z,20.52
2017-09-27T15:22:38.437Z,19.20
2017-09-27T15:25:05.880Z,19.02
2017-09-27T15:27:32.953Z,20.83
2017-09-27T15:30:00.585Z,19.87
2017-09-27T15:32:27.588Z,18.90
2017-09-27T15:34:54.975Z,19.92
2017-09-27T15:39:53.099Z,19.48
2017-09-27T15:42:20.545Z,19.60
2017-09-27T15:44:47.640Z,20.67
2017-09-27T15:47:14.589Z,19.35
2017-09-27T15:49:41.301Z,21.73
2017-09-27T15:52:08.409Z,20.65
2017-09-27T15:54:35.497Z,21.87
2017-09-27T15:57:02.478Z,20.92
2017-09-27T15:59:29.592Z,21.65
2017-09-27T16:01:56.301Z,20.23
2017-09-27T16:04:23.768Z,22.73
2017-09-27T16:06:50.488Z,21.23
2017-09-27T16:09:18.340Z,21.85
2017-09-27T16:11:45.372Z,20.23
2017-09-27T16:14:12.346Z,21.48
2017-09-27T16:16:39.894Z,23.15
2017-09-27T16:19:07.032Z,23.98
2017-09-27T16:21:33.728Z,22.10
2017-09-27T16:24:00.769Z,23.40
2017-09-27T16:26:27.749Z,25.12
2017-09-27T16:28:55.327Z,23.35
2017-09-27T16:31:22.512Z,22.23
2017-09-27T16:33:49.445Z,23.48
2017-09-27T16:36:16.433Z,25.00
2017-09-27T16:38:43.585Z,24.00
2017-09-27T16:41:10.309Z,22.40
2017-09-27T16:43:37.024Z,23.83
2017-09-27T16:46:03.762Z,23.98
2017-09-27T16:48:32.095Z,22.00
2017-09-27T16:51:02.036Z,24.60
2017-09-27T16:53:29.163Z,26.15
2017-09-27T16:58:27.583Z,23.20
2017-09-27T17:03:25.652Z,23.42
2017-09-27T17:05:53.274Z,26.62
2017-09-27T17:08:20.355Z,28.48
2017-09-27T17:10:47.732Z,26.02
2017-09-27T17:13:14.676Z,27.37
2017-09-27T17:15:41.670Z,25.92
2017-09-27T17:18:08.620Z,25.40
2017-09-27T17:20:35.667Z,27.70
2017-09-27T17:23:02.644Z,27.55
2017-09-27T17:25:29.358Z,26.30
2017-09-27T17:27:56.727Z,24.10
2017-09-27T17:30:23.460Z,28.23
2017-09-27T17:32:50.507Z,28.75
2017-09-27T17:35:17.461Z,27.58
2017-09-27T17:37:44.247Z,30.77
2017-09-27T17:40:10.965Z,28.55
2017-09-27T17:42:38.091Z,27.55
2017-09-27T17:45:05.620Z,27.42
2017-09-27T17:47:33.157Z,29.98
2017-09-27T17:49:59.858Z,30.52
2017-09-27T17:52:26.930Z,29.55
2017-09-27T17:54:53.907Z,28.98
2017-09-27T17:57:24.992Z,28.58
2017-09-27T17:59:53.476Z,26.15
2017-09-27T18:02:20.505Z,30.92
2017-09-27T18:05:09.104Z,29.23
2017-09-27T18:10:19.962Z,31.73
2017-09-27T18:13:07.520Z,31.10
2017-09-27T18:15:39.162Z,30.20
2017-09-27T18:18:10.436Z,31.60
2017-09-27T18:28:21.726Z,33.55
2017-09-27T18:30:51.961Z,32.92
2017-09-27T18:33:30.968Z,31.33
2017-09-27T18:43:52.969Z,33.65
2017-09-27T18:49:17.209Z,35.08
2017-09-27T19:02:36.359Z,35.30
2017-09-27T19:58:03.763Z,43.50
2017-09-27T20:05:41.994Z,44.42
2017-09-27T20:08:13.069Z,42.10
2017-09-27T20:10:41.945Z,45.85
2017-09-27T20:15:49.247Z,41.15
2017-09-27T20:18:19.359Z,43.83
2017-09-27T20:20:49.901Z,43.83
2017-09-27T20:25:54.448Z,43.50
2017-09-27T20:30:54.168Z,44.90
2017-09-27T20:36:03.559Z,47.45
2017-09-27T21:04:13.132Z,51.55
2017-09-27T21:17:19.985Z,54.05
2017-09-27T21:25:21.451Z,51.78
2017-09-27T21:30:43.007Z,59.83
2017-09-27T22:04:34.628Z,58.87
2017-09-27T22:09:36.064Z,70.68
2017-09-27T22:14:38.019Z,57.72
2017-09-27T22:30:00.589Z,62.25
2017-09-27T22:32:31.130Z,58.83
2017-09-27T22:37:30.636Z,57.00
2017-09-27T22:52:46.615Z,59.00
2017-09-27T22:55:17.411Z,61.88
2017-09-27T23:08:01.359Z,63.63
2017-09-27T23:13:09.424Z,65.10
2017-09-27T23:18:11.342Z,56.20
2017-09-27T23:23:40.407Z,64.37
2017-09-27T23:26:07.479Z,68.12
2017-09-27T23:28:35.030Z,71.15
2017-09-27T23:31:02.735Z,72.10
2017-09-27T23:33:30.596Z,64.18
2017-09-27T23:38:32.807Z,75.45
2017-09-27T23:41:01.181Z,69.93
2017-09-27T23:46:01.906Z,83.28
2017-09-27T23:48:30.476Z,68.00
2017-09-27T23:50:59.752Z,74.03
2017-09-27T23:53:27.027Z,78.43
2017-09-27T23:55:55.409Z,75.53
2017-09-27T23:58:26.029Z,81.32
